createdAt,value
2018-11-06T00:00:28.802Z,20.10
2018-11-06T00:03:02.656Z,19.17
2018-11-06T00:05:31.612Z,20.20
2018-11-06T00:08:00.888Z,19.07
2018-11-06T00:10:29.965Z,21.07
2018-11-06T00:13:01.131Z,19.67
2018-11-06T00:15:34.506Z,19.20
2018-11-06T00:18:03.626Z,23.27
2018-11-06T00:20:32.817Z,21.93
2018-11-06T00:23:01.842Z,19.23
2018-11-06T00:25:34.499Z,20.60
2018-11-06T00:28:03.421Z,20.00
2018-11-06T00:30:32.708Z,19.20
2018-11-06T00:33:01.863Z,19.40
2018-11-06T00:35:30.657Z,21.13
2018-11-06T00:37:59.892Z,20.73
2018-11-06T00:40:28.845Z,18.93
2018-11-06T00:42:57.984Z,22.83
2018-11-06T00:45:27.193Z,21.83
2018-11-06T00:47:56.179Z,19.43
2018-11-06T00:50:25.073Z,23.50
2018-11-06T00:52:54.040Z,21.13
2018-11-06T00:55:23.020Z,19.73
2018-11-06T00:57:51.810Z,19.60
2018-11-06T01:00:20.628Z,20.57
2018-11-06T01:02:49.917Z,20.67
2018-11-06T01:05:18.990Z,20.83
2018-11-06T01:07:48.659Z,20.40
2018-11-06T01:10:17.417Z,19.47
2018-11-06T01:12:46.266Z,20.27
2018-11-06T01:15:17.641Z,23.03
2018-11-06T01:17:46.922Z,20.97
2018-11-06T01:20:18.758Z,23.07
2018-11-06T01:22:47.610Z,21.40
2018-11-06T01:25:16.867Z,20.60
2018-11-06T01:27:45.746Z,22.67
2018-11-06T01:30:18.565Z,20.83
2018-11-06T01:32:47.746Z,21.17
2018-11-06T01:35:17.061Z,21.53
2018-11-06T01:37:46.334Z,21.17
2018-11-06T01:40:16.212Z,21.63
2018-11-06T01:42:45.425Z,18.47
2018-11-06T01:45:15.326Z,20.33
2018-11-06T01:47:44.479Z,19.53
2018-11-06T01:50:14.670Z,19.67
2018-11-06T01:52:44.392Z,20.17
2018-11-06T01:55:13.361Z,25.97
2018-11-06T01:57:42.375Z,18.70
2018-11-06T02:00:13.776Z,19.93
2018-11-06T02:02:42.973Z,20.27
2018-11-06T02:05:13.188Z,19.63
2018-11-06T02:07:44.471Z,19.47
2018-11-06T02:10:14.146Z,17.67
2018-11-06T02:12:47.447Z,19.13
2018-11-06T02:15:16.381Z,18.33
2018-11-06T02:17:45.991Z,19.87
2018-11-06T02:20:15.536Z,23.93
2018-11-06T02:22:45.313Z,17.43
2018-11-06T02:25:14.569Z,21.00
2018-11-06T02:27:43.541Z,17.33
2018-11-06T02:30:14.426Z,19.03
2018-11-06T02:32:44.225Z,18.20
2018-11-06T02:35:13.375Z,18.47
2018-11-06T02:37:42.532Z,18.23
2018-11-06T02:40:13.998Z,17.93
2018-11-06T02:42:43.202Z,19.50
2018-11-06T02:45:12.923Z,18.07
2018-11-06T02:47:42.590Z,17.40
2018-11-06T02:50:12.389Z,16.67
2018-11-06T02:52:41.982Z,16.47
2018-11-06T02:55:11.440Z,16.10
2018-11-06T02:57:40.453Z,15.73
2018-11-06T03:00:13.492Z,18.97
2018-11-06T03:02:42.641Z,14.20
2018-11-06T03:05:11.945Z,14.77
2018-11-06T03:07:41.511Z,15.60
2018-11-06T03:10:11.516Z,14.63
2018-11-06T03:12:43.370Z,15.10
2018-11-06T03:15:13.411Z,14.83
2018-11-06T03:17:42.226Z,15.80
2018-11-06T03:20:11.963Z,13.03
2018-11-06T03:22:41.325Z,13.70
2018-11-06T03:25:10.518Z,13.27
2018-11-06T03:27:39.324Z,15.57
2018-11-06T03:30:11.512Z,14.00
2018-11-06T03:32:40.593Z,14.00
2018-11-06T03:35:10.994Z,12.87
2018-11-06T03:37:40.187Z,13.87
2018-11-06T03:40:09.823Z,14.80
2018-11-06T03:42:39.832Z,12.63
2018-11-06T03:45:09.244Z,13.60
2018-11-06T03:47:38.277Z,14.20
2018-11-06T03:50:08.211Z,14.80
2018-11-06T03:52:37.210Z,14.03
2018-11-06T03:55:06.559Z,13.80
2018-11-06T03:57:35.735Z,14.03
2018-11-06T04:00:05.173Z,13.87
2018-11-06T04:02:34.504Z,12.03
2018-11-06T04:05:03.352Z,13.13
2018-11-06T04:07:32.386Z,12.40
2018-11-06T04:10:02.535Z,11.47
2018-11-06T04:12:31.498Z,11.97
2018-11-06T04:15:00.775Z,11.77
2018-11-06T04:17:29.809Z,11.10
2018-11-06T04:19:59.928Z,10.60
2018-11-06T04:22:28.860Z,11.57
2018-11-06T04:24:57.821Z,9.90
2018-11-06T04:27:26.770Z,9.77
2018-11-06T04:29:55.863Z,11.40
2018-11-06T04:34:48.888Z,10.57
2018-11-06T04:37:17.636Z,9.67
2018-11-06T04:39:46.416Z,9.83
2018-11-06T04:42:15.312Z,9.97
2018-11-06T04:44:44.362Z,10.20
2018-11-06T04:47:13.105Z,9.37
2018-11-06T04:49:41.759Z,9.07
2018-11-06T04:52:10.705Z,9.03
2018-11-06T04:54:39.348Z,8.23
2018-11-06T04:57:08.226Z,9.23
2018-11-06T04:59:36.956Z,8.87
2018-11-06T05:02:06.461Z,9.50
2018-11-06T05:04:35.265Z,8.47
2018-11-06T05:07:04.163Z,9.60
2018-11-06T05:09:32.707Z,8.97
2018-11-06T05:21:11.885Z,8.00
2018-11-06T05:23:42.717Z,7.30
2018-11-06T05:26:11.455Z,7.40
2018-11-06T05:28:40.181Z,6.83
2018-11-06T05:31:08.840Z,7.80
2018-11-06T05:33:38.900Z,7.60
2018-11-06T05:36:07.760Z,6.93
2018-11-06T05:38:36.462Z,7.50
2018-11-06T05:41:07.308Z,7.33
2018-11-06T05:43:36.966Z,7.03
2018-11-06T05:46:05.873Z,7.00
2018-11-06T05:48:34.713Z,6.83
2018-11-06T05:51:03.458Z,7.83
2018-11-06T05:53:32.434Z,7.03
2018-11-06T05:56:01.398Z,7.40
2018-11-06T05:58:30.145Z,6.90
2018-11-06T06:00:58.958Z,7.87
2018-11-06T06:03:29.204Z,8.03
2018-11-06T06:05:58.022Z,7.40
2018-11-06T06:08:29.357Z,7.63
2018-11-06T06:10:59.667Z,7.30
2018-11-06T06:13:28.665Z,7.67
2018-11-06T06:15:57.589Z,6.53
2018-11-06T06:18:26.639Z,7.93
2018-11-06T06:20:55.752Z,6.17
2018-11-06T06:23:24.756Z,8.03
2018-11-06T06:25:54.694Z,7.13
2018-11-06T06:28:23.839Z,8.07
2018-11-06T06:30:53.020Z,7.27
2018-11-06T06:33:21.830Z,6.30
2018-11-06T06:35:52.134Z,6.90
2018-11-06T06:38:20.724Z,6.77
2018-11-06T06:40:49.362Z,7.27
2018-11-06T06:43:18.117Z,6.93
2018-11-06T06:48:37.486Z,7.27
2018-11-06T06:51:06.523Z,7.50
2018-11-06T06:53:39.831Z,7.17
2018-11-06T06:56:08.629Z,7.70
2018-11-06T06:58:37.334Z,7.40
2018-11-06T07:01:06.440Z,7.43
2018-11-06T07:03:34.995Z,7.07
2018-11-06T07:06:03.624Z,7.53
2018-11-06T07:08:32.297Z,6.50
2018-11-06T07:11:00.991Z,6.90
2018-11-06T07:13:29.754Z,6.97
2018-11-06T07:15:58.460Z,7.00
2018-11-06T07:18:26.996Z,6.80
2018-11-06T07:20:55.989Z,8.03
2018-11-06T07:23:24.602Z,6.60
2018-11-06T07:25:53.390Z,6.73
2018-11-06T07:28:22.156Z,7.60
2018-11-06T07:30:50.916Z,6.43
2018-11-06T07:33:19.859Z,6.27
2018-11-06T07:35:48.772Z,7.30
2018-11-06T07:38:17.490Z,7.17
2018-11-06T07:40:46.284Z,7.30
2018-11-06T07:43:15.190Z,7.33
2018-11-06T07:45:43.898Z,6.57
2018-11-06T07:48:12.623Z,6.53
2018-11-06T07:50:41.328Z,7.00
2018-11-06T07:53:10.154Z,6.37
2018-11-06T07:55:39.044Z,6.17
2018-11-06T07:58:08.003Z,6.70
2018-11-06T08:00:37.073Z,6.37
2018-11-06T08:03:06.121Z,6.57
2018-11-06T08:05:34.777Z,6.63
2018-11-06T08:08:03.506Z,7.30
2018-11-06T08:10:32.359Z,5.60
2018-11-06T08:13:01.365Z,6.90
2018-11-06T08:15:30.150Z,8.20
2018-11-06T08:18:01.010Z,6.43
2018-11-06T08:20:30.055Z,6.00
2018-11-06T08:22:58.648Z,6.20
2018-11-06T08:25:27.524Z,6.27
2018-11-06T08:27:56.359Z,5.87
2018-11-06T08:30:25.053Z,6.10
2018-11-06T08:32:53.834Z,6.13
2018-11-06T08:35:22.718Z,7.17
2018-11-06T08:37:51.301Z,6.37
2018-11-06T08:40:19.982Z,6.30
2018-11-06T08:42:48.765Z,6.33
2018-11-06T08:45:17.931Z,6.00
2018-11-06T08:47:46.998Z,7.30
2018-11-06T08:50:18.398Z,6.83
2018-11-06T08:52:47.318Z,7.70
2018-11-06T08:55:16.955Z,7.03
2018-11-06T08:57:46.360Z,6.73
2018-11-06T09:00:16.863Z,7.00
2018-11-06T09:02:46.938Z,7.20
2018-11-06T09:05:16.390Z,7.37
2018-11-06T09:07:45.359Z,7.70
2018-11-06T09:10:14.901Z,8.37
2018-11-06T09:12:43.949Z,8.33
2018-11-06T09:15:14.433Z,7.23
2018-11-06T09:17:43.468Z,9.07
2018-11-06T09:20:13.436Z,8.17
2018-11-06T09:22:42.520Z,7.73
2018-11-06T09:25:12.826Z,7.63
2018-11-06T09:27:42.514Z,8.40
2018-11-06T09:30:13.923Z,8.10
2018-11-06T09:32:42.784Z,8.17
2018-11-06T09:35:12.711Z,9.77
2018-11-06T09:37:42.366Z,8.70
2018-11-06T09:40:14.067Z,8.27
2018-11-06T09:42:43.039Z,8.47
2018-11-06T09:45:16.377Z,9.10
2018-11-06T09:47:45.548Z,9.57
2018-11-06T09:50:15.830Z,8.97
2018-11-06T09:52:45.477Z,9.57
2018-11-06T09:55:15.020Z,10.50
2018-11-06T09:57:46.524Z,9.37
2018-11-06T10:00:17.073Z,9.13
2018-11-06T10:02:46.131Z,8.73
2018-11-06T10:05:15.340Z,8.17
2018-11-06T10:07:44.660Z,8.90
2018-11-06T10:10:15.390Z,7.43
2018-11-06T10:12:44.624Z,8.23
2018-11-06T10:15:15.822Z,8.30
2018-11-06T10:17:46.091Z,8.33
2018-11-06T10:20:16.167Z,9.80
2018-11-06T10:22:45.113Z,10.40
2018-11-06T10:25:16.196Z,9.07
2018-11-06T10:27:45.224Z,8.37
2018-11-06T10:30:18.149Z,9.27
2018-11-06T10:32:47.053Z,8.63
2018-11-06T10:35:16.045Z,9.20
2018-11-06T10:37:45.133Z,9.60
2018-11-06T10:40:17.578Z,9.00
2018-11-06T10:42:47.764Z,8.67
2018-11-06T10:45:17.065Z,9.80
2018-11-06T10:47:45.908Z,8.83
2018-11-06T10:50:15.555Z,11.73
2018-11-06T10:52:44.651Z,9.83
2018-11-06T10:55:13.519Z,10.20
2018-11-06T10:57:42.674Z,10.77
2018-11-06T11:00:17.729Z,9.97
2018-11-06T11:02:51.675Z,9.00
2018-11-06T11:05:21.604Z,10.90
2018-11-06T11:07:50.522Z,11.77
2018-11-06T11:10:19.411Z,11.37
2018-11-06T11:12:48.386Z,9.10
2018-11-06T11:15:17.610Z,8.30
2018-11-06T11:17:46.521Z,11.17
2018-11-06T11:20:15.650Z,10.50
2018-11-06T11:22:44.457Z,9.67
2018-11-06T11:25:14.578Z,8.83
2018-11-06T11:27:43.841Z,10.10
2018-11-06T11:30:14.718Z,8.40
2018-11-06T11:32:45.069Z,9.87
2018-11-06T11:35:14.629Z,10.23
2018-11-06T11:37:43.913Z,8.90
2018-11-06T11:40:13.791Z,9.03
2018-11-06T11:42:42.732Z,9.07
2018-11-06T11:45:13.886Z,8.30
2018-11-06T11:47:43.007Z,9.63
2018-11-06T11:50:12.926Z,9.07
2018-11-06T11:52:41.964Z,8.67
2018-11-06T11:55:12.093Z,7.57
2018-11-06T11:57:41.307Z,7.83
2018-11-06T12:00:12.647Z,8.40
2018-11-06T12:02:41.674Z,7.37
2018-11-06T12:05:11.440Z,8.40
2018-11-06T12:07:40.625Z,7.00
2018-11-06T12:10:10.923Z,7.00
2018-11-06T12:12:39.793Z,7.27
2018-11-06T12:15:11.002Z,7.93
2018-11-06T12:17:41.357Z,7.43
2018-11-06T12:20:10.193Z,6.27
2018-11-06T12:22:39.443Z,7.30
2018-11-06T12:25:08.555Z,6.93
2018-11-06T12:27:37.652Z,7.10
2018-11-06T12:30:08.128Z,6.37
2018-11-06T12:32:39.361Z,7.13
2018-11-06T12:35:09.062Z,8.60
2018-11-06T12:37:38.222Z,7.03
2018-11-06T12:40:08.086Z,5.77
2018-11-06T12:42:37.132Z,6.70
2018-11-06T12:45:06.851Z,6.33
2018-11-06T12:47:35.711Z,5.43
2018-11-06T12:50:05.113Z,6.00
2018-11-06T12:52:33.910Z,6.03
2018-11-06T12:55:02.589Z,7.27
2018-11-06T12:57:31.218Z,7.60
2018-11-06T13:00:00.168Z,7.77
2018-11-06T13:02:28.871Z,5.63
2018-11-06T13:04:57.621Z,6.30
2018-11-06T13:07:26.613Z,6.67
2018-11-06T13:09:55.565Z,5.77
2018-11-06T13:12:24.327Z,6.97
2018-11-06T13:14:53.048Z,7.43
2018-11-06T13:17:22.068Z,7.73
2018-11-06T13:19:50.923Z,7.07
2018-11-06T13:22:19.581Z,7.00
2018-11-06T13:24:48.507Z,5.17
2018-11-06T13:27:17.387Z,5.23
2018-11-06T13:29:46.076Z,6.27
2018-11-06T13:32:14.915Z,6.40
2018-11-06T13:34:43.851Z,5.43
2018-11-06T13:37:12.749Z,5.87
2018-11-06T13:39:41.514Z,6.67
2018-11-06T13:42:10.371Z,6.43
2018-11-06T13:44:39.262Z,9.83
2018-11-06T13:47:07.783Z,6.67
2018-11-06T13:49:36.606Z,8.00
2018-11-06T13:52:10.598Z,6.83
2018-11-06T13:54:39.275Z,6.67
2018-11-06T13:57:08.390Z,7.17
2018-11-06T13:59:37.251Z,6.37
2018-11-06T14:02:06.368Z,5.90
2018-11-06T14:04:35.254Z,6.67
2018-11-06T14:07:04.053Z,8.67
2018-11-06T14:09:33.056Z,6.60
2018-11-06T14:12:01.611Z,6.50
2018-11-06T14:14:30.350Z,6.17
2018-11-06T14:17:00.305Z,6.00
2018-11-06T14:19:29.047Z,5.97
2018-11-06T14:21:57.667Z,6.17
2018-11-06T14:24:30.091Z,6.20
2018-11-06T14:26:59.116Z,7.93
2018-11-06T14:29:28.227Z,7.50
2018-11-06T14:31:56.823Z,8.37
2018-11-06T14:34:25.871Z,6.37
2018-11-06T14:36:54.684Z,6.23
2018-11-06T14:42:13.991Z,7.23
2018-11-06T14:44:42.811Z,7.20
2018-11-06T14:47:11.884Z,6.63
2018-11-06T14:49:40.532Z,6.67
2018-11-06T14:52:09.493Z,6.60
2018-11-06T14:54:38.514Z,6.77
2018-11-06T14:57:07.155Z,7.40
2018-11-06T14:59:35.825Z,7.33
2018-11-06T15:02:04.932Z,6.90
2018-11-06T15:04:33.630Z,6.90
2018-11-06T15:07:02.235Z,7.00
2018-11-06T15:09:31.608Z,7.83
2018-11-06T15:12:00.256Z,8.53
2018-11-06T15:14:28.994Z,7.37
2018-11-06T15:16:57.863Z,6.80
2018-11-06T15:19:27.207Z,7.73
2018-11-06T15:21:55.824Z,6.93
2018-11-06T15:24:24.646Z,6.60
2018-11-06T15:26:53.465Z,6.77
2018-11-06T15:29:22.523Z,6.40
2018-11-06T15:31:51.267Z,9.40
2018-11-06T15:34:20.223Z,7.07
2018-11-06T15:36:49.606Z,7.80
2018-11-06T15:39:19.426Z,10.60
2018-11-06T15:41:48.329Z,7.30
2018-11-06T15:44:17.104Z,7.83
2018-11-06T15:46:45.797Z,8.30
2018-11-06T15:49:26.601Z,7.80
2018-11-06T15:51:55.919Z,8.70
2018-11-06T15:54:24.966Z,8.17
2018-11-06T15:56:53.705Z,8.60
2018-11-06T15:59:22.422Z,8.80
2018-11-06T16:01:51.547Z,8.27
2018-11-06T16:04:20.504Z,8.30
2018-11-06T16:06:49.623Z,8.07
2018-11-06T16:09:18.695Z,7.17
2018-11-06T16:11:47.905Z,8.10
2018-11-06T16:14:17.140Z,6.90
2018-11-06T16:16:45.997Z,8.20
2018-11-06T16:19:14.959Z,9.20
2018-11-06T16:21:44.122Z,8.00
2018-11-06T16:24:13.313Z,11.10
2018-11-06T16:26:42.243Z,10.23
2018-11-06T16:29:13.344Z,7.90
2018-11-06T16:31:42.668Z,7.03
2018-11-06T16:34:11.570Z,9.27
2018-11-06T16:36:40.333Z,8.20
2018-11-06T16:39:11.707Z,7.57
2018-11-06T16:41:42.928Z,7.53
2018-11-06T16:44:12.033Z,7.40
2018-11-06T16:46:40.908Z,8.23
2018-11-06T16:49:10.005Z,6.83
2018-11-06T16:51:40.032Z,8.70
2018-11-06T16:54:09.013Z,10.43
2018-11-06T16:56:38.108Z,13.33
2018-11-06T16:59:07.313Z,14.70
2018-11-06T17:01:36.278Z,7.93
2018-11-06T17:04:05.262Z,7.57
2018-11-06T17:06:40.239Z,10.07
2018-11-06T17:09:10.144Z,12.37
2018-11-06T17:11:40.393Z,12.70
2018-11-06T17:14:09.412Z,8.73
2018-11-06T17:16:38.488Z,8.93
2018-11-06T17:19:09.054Z,13.37
2018-11-06T17:21:40.336Z,9.47
2018-11-06T17:24:09.619Z,11.03
2018-11-06T17:26:38.496Z,9.03
2018-11-06T17:29:08.577Z,11.43
2018-11-06T17:31:37.693Z,11.50
2018-11-06T17:34:06.784Z,10.33
2018-11-06T17:36:36.156Z,12.40
2018-11-06T17:39:07.360Z,10.53
2018-11-06T17:41:37.117Z,13.60
2018-11-06T17:44:06.410Z,13.03
2018-11-06T17:46:35.635Z,13.37
2018-11-06T17:49:04.745Z,11.70
2018-11-06T17:51:38.705Z,11.83
2018-11-06T17:54:08.005Z,12.40
2018-11-06T17:56:36.939Z,10.33
2018-11-06T17:59:06.409Z,9.57
2018-11-06T18:01:35.563Z,12.67
2018-11-06T18:04:05.522Z,12.10
2018-11-06T18:06:38.481Z,10.97
2018-11-06T18:09:12.010Z,9.73
2018-11-06T18:11:43.092Z,9.67
2018-11-06T18:14:12.068Z,13.20
2018-11-06T18:16:44.509Z,11.17
2018-11-06T18:22:47.601Z,12.30
2018-11-06T18:25:16.935Z,9.73
2018-11-06T18:27:46.901Z,11.23
2018-11-06T18:30:17.400Z,10.63
2018-11-06T18:32:46.406Z,11.47
2018-11-06T18:35:18.754Z,13.63
2018-11-06T18:37:47.633Z,9.63
2018-11-06T18:40:19.000Z,10.50
2018-11-06T18:42:48.782Z,12.70
2018-11-06T18:45:17.903Z,9.07
2018-11-06T18:47:47.118Z,7.80
2018-11-06T18:50:17.122Z,9.07
2018-11-06T18:52:47.395Z,7.33
2018-11-06T18:55:18.601Z,10.43
2018-11-06T18:57:47.825Z,10.13
2018-11-06T19:00:23.393Z,8.77
2018-11-06T19:02:52.760Z,8.13
2018-11-06T19:05:22.421Z,13.10
2018-11-06T19:07:51.082Z,13.20
2018-11-06T19:10:20.087Z,8.07
2018-11-06T19:12:48.845Z,8.57
2018-11-06T19:15:18.990Z,8.70
2018-11-06T19:17:48.242Z,8.43
2018-11-06T19:20:21.496Z,12.03
2018-11-06T19:22:51.683Z,10.83
2018-11-06T19:25:21.044Z,11.33
2018-11-06T19:27:50.661Z,8.83
2018-11-06T19:30:20.988Z,10.27
2018-11-06T19:32:50.173Z,7.33
2018-11-06T19:35:19.679Z,9.90
2018-11-06T19:37:48.556Z,8.70
2018-11-06T19:40:18.091Z,12.30
2018-11-06T19:42:47.510Z,7.37
2018-11-06T19:45:16.343Z,12.80
2018-11-06T19:47:45.154Z,8.63
2018-11-06T19:50:20.399Z,9.43
2018-11-06T19:52:49.309Z,13.20
2018-11-06T19:55:18.527Z,8.40
2018-11-06T19:57:47.173Z,9.20
2018-11-06T20:00:17.925Z,11.00
2018-11-06T20:02:50.398Z,9.13
2018-11-06T20:05:20.832Z,10.30
2018-11-06T20:07:50.655Z,10.03
2018-11-06T20:10:20.768Z,8.37
2018-11-06T20:12:50.783Z,11.30
2018-11-06T20:15:19.688Z,11.33
2018-11-06T20:17:48.663Z,7.90
2018-11-06T20:20:22.412Z,8.17
2018-11-06T20:22:51.308Z,12.63
2018-11-06T20:25:20.280Z,14.47
2018-11-06T20:27:49.558Z,11.87
2018-11-06T20:30:20.750Z,9.53
2018-11-06T20:32:49.644Z,9.93
2018-11-06T20:35:18.648Z,10.50
2018-11-06T20:37:48.759Z,9.87
2018-11-06T20:40:20.110Z,9.03
2018-11-06T20:42:49.356Z,11.07
2018-11-06T20:45:22.372Z,8.60
2018-11-06T20:47:51.285Z,14.53
2018-11-06T20:50:21.766Z,9.63
2018-11-06T20:52:50.739Z,10.20
2018-11-06T20:55:19.832Z,11.53
2018-11-06T20:57:51.168Z,9.53
2018-11-06T21:00:27.845Z,12.60
2018-11-06T21:02:59.182Z,9.50
2018-11-06T21:05:28.263Z,11.27
2018-11-06T21:07:57.462Z,7.63
2018-11-06T21:10:28.991Z,13.93
2018-11-06T21:12:58.637Z,11.47
2018-11-06T21:15:28.607Z,10.27
2018-11-06T21:17:57.819Z,13.77
2018-11-06T21:20:26.874Z,13.80
2018-11-06T21:22:55.980Z,13.33
2018-11-06T21:25:25.225Z,13.63
2018-11-06T21:27:54.528Z,10.57
2018-11-06T21:30:23.705Z,11.70
2018-11-06T21:32:55.165Z,12.80
2018-11-06T21:35:26.059Z,13.90
2018-11-06T21:37:55.162Z,10.07
2018-11-06T21:40:24.244Z,10.50
2018-11-06T21:42:54.652Z,13.77
2018-11-06T21:45:24.223Z,13.87
2018-11-06T21:47:55.302Z,12.47
2018-11-06T21:50:24.696Z,12.03
2018-11-06T21:52:53.865Z,13.33
2018-11-06T21:55:24.323Z,8.93
2018-11-06T21:57:54.970Z,9.10
2018-11-06T22:00:24.003Z,9.80
2018-11-06T22:02:53.288Z,8.67
2018-11-06T22:05:22.841Z,8.27
2018-11-06T22:07:53.150Z,11.43
2018-11-06T22:10:22.604Z,9.20
2018-11-06T22:12:51.802Z,8.40
2018-11-06T22:15:22.157Z,9.03
2018-11-06T22:17:51.680Z,10.60
2018-11-06T22:20:21.087Z,12.80
2018-11-06T22:22:50.486Z,14.40
2018-11-06T22:25:19.865Z,9.40
2018-11-06T22:27:49.012Z,9.40
2018-11-06T22:30:18.261Z,14.43
2018-11-06T22:32:47.920Z,14.47
2018-11-06T22:35:18.051Z,10.97
2018-11-06T22:37:47.261Z,12.27
2018-11-06T22:40:17.379Z,12.73
2018-11-06T22:42:46.538Z,11.50
2018-11-06T22:45:17.038Z,8.57
2018-11-06T22:47:46.287Z,8.67
2018-11-06T22:50:16.618Z,9.37
2018-11-06T22:52:47.603Z,9.83
2018-11-06T22:55:16.969Z,11.93
2018-11-06T22:57:46.103Z,13.87
2018-11-06T23:00:26.663Z,13.20
2018-11-06T23:02:55.748Z,9.10
2018-11-06T23:05:25.156Z,10.10
2018-11-06T23:07:59.344Z,14.20
2018-11-06T23:10:28.572Z,15.60
2018-11-06T23:12:57.817Z,11.33
2018-11-06T23:15:27.067Z,15.07
2018-11-06T23:17:56.270Z,15.70
2018-11-06T23:20:25.585Z,15.60
2018-11-06T23:22:54.898Z,15.07
2018-11-06T23:25:24.337Z,9.57
2018-11-06T23:27:54.988Z,10.93
2018-11-06T23:30:24.224Z,10.93
2018-11-06T23:32:53.395Z,10.77
2018-11-06T23:35:22.724Z,9.67
2018-11-06T23:37:52.094Z,14.57
2018-11-06T23:40:21.487Z,9.13
2018-11-06T23:42:50.755Z,9.20
2018-11-06T23:45:20.075Z,13.47
2018-11-06T23:47:49.492Z,9.73
2018-11-06T23:50:18.986Z,15.57
2018-11-06T23:52:49.260Z,9.50
2018-11-06T23:55:18.577Z,9.20
2018-11-06T23:57:47.850Z,13.83
